sensor_id;sensor_type;location;lat;lon;timestamp;P1;durP1;ratioP1;P2;durP2;ratioP2
48727;SDS011;34527;45.618;5.130;2022-12-08T00:01:07;38.88;;;21.08;;
48727;SDS011;34527;45.618;5.130;2022-12-08T00:03:34;35.13;;;21.60;;
48727;SDS011;34527;45.618;5.130;2022-12-08T00:06:01;36.40;;;22.60;;
48727;SDS011;34527;45.618;5.130;2022-12-08T00:08:46;31.38;;;20.15;;
48727;SDS011;34527;45.618;5.130;2022-12-08T00:11:31;35.67;;;20.98;;
48727;SDS011;34527;45.618;5.130;2022-12-08T00:13:57;33.25;;;20.67;;
48727;SDS011;34527;45.618;5.130;2022-12-08T00:16:23;35.45;;;21.40;;
48727;SDS011;34527;45.618;5.130;2022-12-08T00:18:49;34.30;;;21.92;;
48727;SDS011;34527;45.618;5.130;2022-12-08T00:21:15;36.30;;;22.13;;
48727;SDS011;34527;45.618;5.130;2022-12-08T00:23:41;33.60;;;21.13;;
48727;SDS011;34527;45.618;5.130;2022-12-08T00:26:06;36.80;;;22.70;;
48727;SDS011;34527;45.618;5.130;2022-12-08T00:28:33;37.92;;;21.05;;
48727;SDS011;34527;45.618;5.130;2022-12-08T00:30:59;34.33;;;20.52;;
48727;SDS011;34527;45.618;5.130;2022-12-08T00:33:32;33.10;;;20.83;;
48727;SDS011;34527;45.618;5.130;2022-12-08T00:36:03;32.92;;;21.10;;
48727;SDS011;34527;45.618;5.130;2022-12-08T00:38:30;30.27;;;19.63;;
48727;SDS011;34527;45.618;5.130;2022-12-08T00:40:56;36.67;;;20.67;;
48727;SDS011;34527;45.618;5.130;2022-12-08T00:43:22;38.55;;;22.42;;
48727;SDS011;34527;45.618;5.130;2022-12-08T00:45:48;33.90;;;20.48;;
48727;SDS011;34527;45.618;5.130;2022-12-08T00:48:14;33.97;;;21.02;;
48727;SDS011;34527;45.618;5.130;2022-12-08T00:50:39;31.48;;;20.38;;
48727;SDS011;34527;45.618;5.130;2022-12-08T00:53:05;33.53;;;20.55;;
48727;SDS011;34527;45.618;5.130;2022-12-08T00:55:31;40.10;;;22.35;;
48727;SDS011;34527;45.618;5.130;2022-12-08T00:57:57;36.13;;;20.70;;
48727;SDS011;34527;45.618;5.130;2022-12-08T01:00:23;35.10;;;20.42;;
48727;SDS011;34527;45.618;5.130;2022-12-08T01:02:48;36.38;;;20.98;;
48727;SDS011;34527;45.618;5.130;2022-12-08T01:05:14;34.03;;;21.08;;
48727;SDS011;34527;45.618;5.130;2022-12-08T01:07:40;47.70;;;26.35;;
48727;SDS011;34527;45.618;5.130;2022-12-08T01:10:06;46.17;;;24.92;;
48727;SDS011;34527;45.618;5.130;2022-12-08T01:12:32;50.20;;;26.55;;
48727;SDS011;34527;45.618;5.130;2022-12-08T01:14:58;68.03;;;32.72;;
48727;SDS011;34527;45.618;5.130;2022-12-08T01:17:24;52.00;;;30.52;;
48727;SDS011;34527;45.618;5.130;2022-12-08T01:19:50;55.15;;;29.52;;
48727;SDS011;34527;45.618;5.130;2022-12-08T01:22:16;57.72;;;31.35;;
48727;SDS011;34527;45.618;5.130;2022-12-08T01:24:42;54.85;;;29.42;;
48727;SDS011;34527;45.618;5.130;2022-12-08T01:27:08;50.78;;;29.55;;
48727;SDS011;34527;45.618;5.130;2022-12-08T01:29:34;46.55;;;25.83;;
48727;SDS011;34527;45.618;5.130;2022-12-08T01:31:59;40.22;;;23.45;;
48727;SDS011;34527;45.618;5.130;2022-12-08T01:34:25;39.85;;;23.55;;
48727;SDS011;34527;45.618;5.130;2022-12-08T01:36:51;37.45;;;21.50;;
48727;SDS011;34527;45.618;5.130;2022-12-08T01:39:17;35.05;;;21.83;;
48727;SDS011;34527;45.618;5.130;2022-12-08T01:41:44;35.42;;;22.52;;
48727;SDS011;34527;45.618;5.130;2022-12-08T01:46:41;45.22;;;25.77;;
48727;SDS011;34527;45.618;5.130;2022-12-08T01:54:59;40.65;;;23.60;;
48727;SDS011;34527;45.618;5.130;2022-12-08T01:57:27;40.78;;;23.33;;
48727;SDS011;34527;45.618;5.130;2022-12-08T02:00:09;37.63;;;22.67;;
48727;SDS011;34527;45.618;5.130;2022-12-08T02:05:25;36.67;;;22.27;;
48727;SDS011;34527;45.618;5.130;2022-12-08T02:07:54;36.28;;;21.83;;
48727;SDS011;34527;45.618;5.130;2022-12-08T02:10:22;36.90;;;22.05;;
48727;SDS011;34527;45.618;5.130;2022-12-08T02:12:51;41.90;;;23.23;;
48727;SDS011;34527;45.618;5.130;2022-12-08T02:15:21;38.88;;;22.60;;
48727;SDS011;34527;45.618;5.130;2022-12-08T02:34:36;41.85;;;23.25;;
48727;SDS011;34527;45.618;5.130;2022-12-08T02:37:30;45.17;;;24.67;;
48727;SDS011;34527;45.618;5.130;2022-12-08T02:45:24;44.75;;;23.83;;
48727;SDS011;34527;45.618;5.130;2022-12-08T02:48:19;43.15;;;24.83;;
48727;SDS011;34527;45.618;5.130;2022-12-08T02:50:45;38.42;;;21.88;;
48727;SDS011;34527;45.618;5.130;2022-12-08T02:53:11;39.60;;;22.42;;
48727;SDS011;34527;45.618;5.130;2022-12-08T02:55:58;38.03;;;22.77;;
48727;SDS011;34527;45.618;5.130;2022-12-08T02:58:56;39.38;;;23.67;;
48727;SDS011;34527;45.618;5.130;2022-12-08T03:04:37;43.42;;;23.38;;
48727;SDS011;34527;45.618;5.130;2022-12-08T03:10:11;44.60;;;23.27;;
48727;SDS011;34527;45.618;5.130;2022-12-08T03:13:12;43.22;;;24.67;;
48727;SDS011;34527;45.618;5.130;2022-12-08T03:15:40;42.95;;;23.50;;
48727;SDS011;34527;45.618;5.130;2022-12-08T03:18:10;44.53;;;24.83;;
48727;SDS011;34527;45.618;5.130;2022-12-08T03:20:39;42.72;;;23.95;;
48727;SDS011;34527;45.618;5.130;2022-12-08T03:23:07;40.65;;;23.73;;
48727;SDS011;34527;45.618;5.130;2022-12-08T03:25:38;41.13;;;22.90;;
48727;SDS011;34527;45.618;5.130;2022-12-08T03:28:09;39.53;;;23.40;;
48727;SDS011;34527;45.618;5.130;2022-12-08T03:30:38;45.53;;;24.92;;
48727;SDS011;34527;45.618;5.130;2022-12-08T03:33:13;41.33;;;24.25;;
48727;SDS011;34527;45.618;5.130;2022-12-08T03:35:44;40.92;;;24.00;;
48727;SDS011;34527;45.618;5.130;2022-12-08T03:38:12;36.92;;;22.15;;
48727;SDS011;34527;45.618;5.130;2022-12-08T03:40:40;38.00;;;22.83;;
48727;SDS011;34527;45.618;5.130;2022-12-08T03:43:06;37.78;;;21.77;;
48727;SDS011;34527;45.618;5.130;2022-12-08T03:45:32;41.40;;;23.10;;
48727;SDS011;34527;45.618;5.130;2022-12-08T03:47:58;40.38;;;23.08;;
48727;SDS011;34527;45.618;5.130;2022-12-08T03:50:24;42.90;;;24.77;;
48727;SDS011;34527;45.618;5.130;2022-12-08T03:52:50;42.35;;;26.10;;
48727;SDS011;34527;45.618;5.130;2022-12-08T03:55:16;44.85;;;25.38;;
48727;SDS011;34527;45.618;5.130;2022-12-08T03:57:43;44.47;;;25.27;;
48727;SDS011;34527;45.618;5.130;2022-12-08T04:00:10;41.17;;;24.33;;
48727;SDS011;34527;45.618;5.130;2022-12-08T04:02:39;43.03;;;24.20;;
48727;SDS011;34527;45.618;5.130;2022-12-08T04:05:05;44.05;;;25.52;;
48727;SDS011;34527;45.618;5.130;2022-12-08T04:07:31;41.83;;;23.95;;
48727;SDS011;34527;45.618;5.130;2022-12-08T04:09:57;40.42;;;23.13;;
48727;SDS011;34527;45.618;5.130;2022-12-08T04:12:23;43.40;;;24.50;;
48727;SDS011;34527;45.618;5.130;2022-12-08T04:14:49;41.53;;;24.33;;
48727;SDS011;34527;45.618;5.130;2022-12-08T04:17:15;44.45;;;25.67;;
48727;SDS011;34527;45.618;5.130;2022-12-08T04:19:41;42.70;;;24.60;;
48727;SDS011;34527;45.618;5.130;2022-12-08T04:22:06;41.67;;;24.50;;
48727;SDS011;34527;45.618;5.130;2022-12-08T04:24:32;44.35;;;25.52;;
48727;SDS011;34527;45.618;5.130;2022-12-08T04:26:58;42.00;;;24.20;;
48727;SDS011;34527;45.618;5.130;2022-12-08T04:29:24;36.95;;;22.65;;
48727;SDS011;34527;45.618;5.130;2022-12-08T04:31:50;40.25;;;23.02;;
48727;SDS011;34527;45.618;5.130;2022-12-08T04:34:16;38.55;;;23.27;;
48727;SDS011;34527;45.618;5.130;2022-12-08T04:36:41;43.40;;;24.98;;
48727;SDS011;34527;45.618;5.130;2022-12-08T04:39:07;42.58;;;24.42;;
48727;SDS011;34527;45.618;5.130;2022-12-08T04:41:33;40.55;;;24.45;;
48727;SDS011;34527;45.618;5.130;2022-12-08T04:43:59;41.03;;;24.65;;
48727;SDS011;34527;45.618;5.130;2022-12-08T04:46:25;42.60;;;24.70;;
48727;SDS011;34527;45.618;5.130;2022-12-08T04:48:50;42.78;;;24.50;;
48727;SDS011;34527;45.618;5.130;2022-12-08T04:51:17;44.60;;;25.98;;
48727;SDS011;34527;45.618;5.130;2022-12-08T04:53:44;45.50;;;24.83;;
48727;SDS011;34527;45.618;5.130;2022-12-08T04:56:11;37.90;;;23.58;;
48727;SDS011;34527;45.618;5.130;2022-12-08T04:58:42;42.90;;;22.95;;
48727;SDS011;34527;45.618;5.130;2022-12-08T05:01:08;41.40;;;25.52;;
48727;SDS011;34527;45.618;5.130;2022-12-08T05:03:34;43.92;;;25.73;;
48727;SDS011;34527;45.618;5.130;2022-12-08T05:06:00;42.03;;;23.98;;
48727;SDS011;34527;45.618;5.130;2022-12-08T05:08:26;40.75;;;23.98;;
48727;SDS011;34527;45.618;5.130;2022-12-08T05:10:53;41.28;;;24.38;;
48727;SDS011;34527;45.618;5.130;2022-12-08T05:13:25;43.88;;;24.25;;
48727;SDS011;34527;45.618;5.130;2022-12-08T05:15:51;40.30;;;22.85;;
48727;SDS011;34527;45.618;5.130;2022-12-08T05:18:17;39.85;;;23.83;;
48727;SDS011;34527;45.618;5.130;2022-12-08T05:20:43;40.40;;;24.40;;
48727;SDS011;34527;45.618;5.130;2022-12-08T05:23:09;39.80;;;23.60;;
48727;SDS011;34527;45.618;5.130;2022-12-08T05:25:35;40.58;;;24.27;;
48727;SDS011;34527;45.618;5.130;2022-12-08T05:28:00;41.85;;;24.83;;
48727;SDS011;34527;45.618;5.130;2022-12-08T05:30:26;47.67;;;24.73;;
48727;SDS011;34527;45.618;5.130;2022-12-08T05:32:53;42.92;;;25.00;;
48727;SDS011;34527;45.618;5.130;2022-12-08T05:35:19;42.17;;;24.20;;
48727;SDS011;34527;45.618;5.130;2022-12-08T05:37:45;39.85;;;23.60;;
48727;SDS011;34527;45.618;5.130;2022-12-08T05:40:11;41.95;;;24.80;;
48727;SDS011;34527;45.618;5.130;2022-12-08T05:42:36;39.72;;;24.05;;
48727;SDS011;34527;45.618;5.130;2022-12-08T05:45:02;39.85;;;24.00;;
48727;SDS011;34527;45.618;5.130;2022-12-08T05:47:29;39.85;;;23.27;;
48727;SDS011;34527;45.618;5.130;2022-12-08T05:49:54;42.42;;;24.02;;
48727;SDS011;34527;45.618;5.130;2022-12-08T05:52:20;43.33;;;22.75;;
48727;SDS011;34527;45.618;5.130;2022-12-08T05:54:46;41.90;;;24.48;;
48727;SDS011;34527;45.618;5.130;2022-12-08T05:57:12;40.80;;;24.55;;
48727;SDS011;34527;45.618;5.130;2022-12-08T05:59:38;43.38;;;24.95;;
48727;SDS011;34527;45.618;5.130;2022-12-08T06:02:04;46.90;;;25.45;;
48727;SDS011;34527;45.618;5.130;2022-12-08T06:04:29;43.13;;;25.05;;
48727;SDS011;34527;45.618;5.130;2022-12-08T06:06:55;43.70;;;25.30;;
48727;SDS011;34527;45.618;5.130;2022-12-08T06:09:21;38.65;;;23.65;;
48727;SDS011;34527;45.618;5.130;2022-12-08T06:11:47;42.80;;;23.40;;
48727;SDS011;34527;45.618;5.130;2022-12-08T06:14:13;41.20;;;25.98;;
48727;SDS011;34527;45.618;5.130;2022-12-08T06:16:39;40.55;;;24.10;;
48727;SDS011;34527;45.618;5.130;2022-12-08T06:19:05;40.47;;;24.00;;
48727;SDS011;34527;45.618;5.130;2022-12-08T06:21:30;37.38;;;23.42;;
48727;SDS011;34527;45.618;5.130;2022-12-08T06:23:56;41.85;;;23.92;;
48727;SDS011;34527;45.618;5.130;2022-12-08T06:26:22;41.97;;;23.80;;
48727;SDS011;34527;45.618;5.130;2022-12-08T06:28:49;45.00;;;25.48;;
48727;SDS011;34527;45.618;5.130;2022-12-08T06:31:16;48.63;;;28.30;;
48727;SDS011;34527;45.618;5.130;2022-12-08T06:33:47;47.67;;;27.05;;
48727;SDS011;34527;45.618;5.130;2022-12-08T06:36:14;45.13;;;26.30;;
48727;SDS011;34527;45.618;5.130;2022-12-08T06:38:41;43.50;;;26.13;;
48727;SDS011;34527;45.618;5.130;2022-12-08T06:41:08;46.17;;;26.25;;
48727;SDS011;34527;45.618;5.130;2022-12-08T06:43:34;41.28;;;25.40;;
48727;SDS011;34527;45.618;5.130;2022-12-08T06:46:00;42.22;;;24.77;;
48727;SDS011;34527;45.618;5.130;2022-12-08T06:48:26;46.35;;;26.95;;
48727;SDS011;34527;45.618;5.130;2022-12-08T06:50:52;42.53;;;25.63;;
48727;SDS011;34527;45.618;5.130;2022-12-08T06:53:18;45.58;;;27.20;;
48727;SDS011;34527;45.618;5.130;2022-12-08T06:55:50;58.15;;;33.17;;
48727;SDS011;34527;45.618;5.130;2022-12-08T06:58:17;44.80;;;26.60;;
48727;SDS011;34527;45.618;5.130;2022-12-08T07:00:43;40.38;;;24.27;;
48727;SDS011;34527;45.618;5.130;2022-12-08T07:03:10;45.20;;;26.48;;
48727;SDS011;34527;45.618;5.130;2022-12-08T07:05:36;47.33;;;25.88;;
48727;SDS011;34527;45.618;5.130;2022-12-08T07:08:03;45.05;;;25.90;;
48727;SDS011;34527;45.618;5.130;2022-12-08T07:10:31;40.90;;;25.48;;
48727;SDS011;34527;45.618;5.130;2022-12-08T07:12:57;44.17;;;24.60;;
48727;SDS011;34527;45.618;5.130;2022-12-08T07:15:23;39.47;;;22.38;;
48727;SDS011;34527;45.618;5.130;2022-12-08T07:17:50;38.35;;;21.83;;
48727;SDS011;34527;45.618;5.130;2022-12-08T07:20:16;37.63;;;22.42;;
48727;SDS011;34527;45.618;5.130;2022-12-08T07:22:51;35.55;;;21.02;;
48727;SDS011;34527;45.618;5.130;2022-12-08T07:25:17;41.08;;;22.25;;
48727;SDS011;34527;45.618;5.130;2022-12-08T07:27:44;43.63;;;23.45;;
48727;SDS011;34527;45.618;5.130;2022-12-08T07:30:10;39.45;;;23.08;;
48727;SDS011;34527;45.618;5.130;2022-12-08T07:32:37;38.45;;;23.10;;
48727;SDS011;34527;45.618;5.130;2022-12-08T07:35:04;45.10;;;23.83;;
48727;SDS011;34527;45.618;5.130;2022-12-08T07:37:32;39.65;;;23.38;;
48727;SDS011;34527;45.618;5.130;2022-12-08T07:39:59;44.47;;;23.75;;
48727;SDS011;34527;45.618;5.130;2022-12-08T07:42:25;37.97;;;22.55;;
48727;SDS011;34527;45.618;5.130;2022-12-08T07:44:51;41.25;;;23.58;;
48727;SDS011;34527;45.618;5.130;2022-12-08T07:47:17;40.45;;;22.08;;
48727;SDS011;34527;45.618;5.130;2022-12-08T07:49:44;46.05;;;23.52;;
48727;SDS011;34527;45.618;5.130;2022-12-08T07:52:15;42.75;;;22.88;;
48727;SDS011;34527;45.618;5.130;2022-12-08T07:54:41;50.85;;;25.35;;
48727;SDS011;34527;45.618;5.130;2022-12-08T07:57:07;44.85;;;24.45;;
48727;SDS011;34527;45.618;5.130;2022-12-08T07:59:34;48.42;;;26.55;;
48727;SDS011;34527;45.618;5.130;2022-12-08T08:02:00;52.63;;;27.23;;
48727;SDS011;34527;45.618;5.130;2022-12-08T08:04:26;50.10;;;26.40;;
48727;SDS011;34527;45.618;5.130;2022-12-08T08:06:52;54.40;;;27.23;;
48727;SDS011;34527;45.618;5.130;2022-12-08T08:09:18;51.20;;;26.67;;
48727;SDS011;34527;45.618;5.130;2022-12-08T08:11:44;52.05;;;27.00;;
48727;SDS011;34527;45.618;5.130;2022-12-08T08:14:10;54.80;;;28.48;;
48727;SDS011;34527;45.618;5.130;2022-12-08T08:16:36;54.33;;;27.88;;
48727;SDS011;34527;45.618;5.130;2022-12-08T08:19:02;57.33;;;28.67;;
48727;SDS011;34527;45.618;5.130;2022-12-08T08:21:27;54.67;;;28.23;;
48727;SDS011;34527;45.618;5.130;2022-12-08T08:23:53;53.53;;;27.48;;
48727;SDS011;34527;45.618;5.130;2022-12-08T08:26:19;54.63;;;28.08;;
48727;SDS011;34527;45.618;5.130;2022-12-08T08:28:46;55.17;;;27.95;;
48727;SDS011;34527;45.618;5.130;2022-12-08T08:31:14;51.05;;;25.65;;
48727;SDS011;34527;45.618;5.130;2022-12-08T08:33:40;50.42;;;26.45;;
48727;SDS011;34527;45.618;5.130;2022-12-08T08:36:06;59.25;;;28.13;;
48727;SDS011;34527;45.618;5.130;2022-12-08T08:38:34;46.33;;;25.70;;
48727;SDS011;34527;45.618;5.130;2022-12-08T08:41:05;53.78;;;26.38;;
48727;SDS011;34527;45.618;5.130;2022-12-08T08:43:32;55.60;;;25.52;;
48727;SDS011;34527;45.618;5.130;2022-12-08T08:46:00;58.65;;;26.35;;
48727;SDS011;34527;45.618;5.130;2022-12-08T08:48:27;58.78;;;28.05;;
48727;SDS011;34527;45.618;5.130;2022-12-08T08:50:54;57.45;;;26.25;;
48727;SDS011;34527;45.618;5.130;2022-12-08T08:53:22;58.45;;;26.92;;
48727;SDS011;34527;45.618;5.130;2022-12-08T08:55:49;56.95;;;26.63;;
48727;SDS011;34527;45.618;5.130;2022-12-08T08:58:17;64.78;;;28.95;;
48727;SDS011;34527;45.618;5.130;2022-12-08T09:00:43;57.97;;;27.60;;
48727;SDS011;34527;45.618;5.130;2022-12-08T09:03:09;67.93;;;28.08;;
48727;SDS011;34527;45.618;5.130;2022-12-08T09:05:36;73.90;;;29.13;;
48727;SDS011;34527;45.618;5.130;2022-12-08T09:08:04;63.33;;;28.55;;
48727;SDS011;34527;45.618;5.130;2022-12-08T09:10:30;68.68;;;29.40;;
48727;SDS011;34527;45.618;5.130;2022-12-08T09:12:55;57.40;;;27.83;;
48727;SDS011;34527;45.618;5.130;2022-12-08T09:15:21;64.55;;;28.90;;
48727;SDS011;34527;45.618;5.130;2022-12-08T09:17:47;70.68;;;30.48;;
48727;SDS011;34527;45.618;5.130;2022-12-08T09:20:13;65.35;;;29.75;;
48727;SDS011;34527;45.618;5.130;2022-12-08T09:22:39;64.80;;;29.75;;
48727;SDS011;34527;45.618;5.130;2022-12-08T09:25:06;64.57;;;28.98;;
48727;SDS011;34527;45.618;5.130;2022-12-08T09:27:33;59.78;;;28.83;;
48727;SDS011;34527;45.618;5.130;2022-12-08T09:29:59;61.42;;;28.48;;
48727;SDS011;34527;45.618;5.130;2022-12-08T09:32:26;58.15;;;28.45;;
48727;SDS011;34527;45.618;5.130;2022-12-08T09:34:57;59.40;;;29.00;;
48727;SDS011;34527;45.618;5.130;2022-12-08T09:37:23;59.95;;;29.35;;
48727;SDS011;34527;45.618;5.130;2022-12-08T09:39:49;58.50;;;28.85;;
48727;SDS011;34527;45.618;5.130;2022-12-08T09:42:17;60.50;;;28.90;;
48727;SDS011;34527;45.618;5.130;2022-12-08T09:44:56;64.70;;;29.35;;
48727;SDS011;34527;45.618;5.130;2022-12-08T09:47:40;59.05;;;27.77;;
48727;SDS011;34527;45.618;5.130;2022-12-08T09:50:21;58.53;;;28.48;;
48727;SDS011;34527;45.618;5.130;2022-12-08T09:55:54;55.97;;;27.75;;
48727;SDS011;34527;45.618;5.130;2022-12-08T09:58:26;63.65;;;30.27;;
48727;SDS011;34527;45.618;5.130;2022-12-08T10:01:14;57.80;;;27.75;;
48727;SDS011;34527;45.618;5.130;2022-12-08T10:03:40;62.35;;;29.33;;
48727;SDS011;34527;45.618;5.130;2022-12-08T10:12:25;64.50;;;30.17;;
48727;SDS011;34527;45.618;5.130;2022-12-08T10:17:58;69.13;;;31.00;;
48727;SDS011;34527;45.618;5.130;2022-12-08T10:20:37;68.28;;;31.85;;
48727;SDS011;34527;45.618;5.130;2022-12-08T10:23:09;69.05;;;31.65;;
48727;SDS011;34527;45.618;5.130;2022-12-08T10:26:00;64.18;;;30.45;;
48727;SDS011;34527;45.618;5.130;2022-12-08T10:28:33;72.03;;;31.42;;
48727;SDS011;34527;45.618;5.130;2022-12-08T10:30:59;68.07;;;31.17;;
48727;SDS011;34527;45.618;5.130;2022-12-08T10:33:25;70.28;;;31.88;;
48727;SDS011;34527;45.618;5.130;2022-12-08T10:35:55;66.22;;;31.65;;
48727;SDS011;34527;45.618;5.130;2022-12-08T10:38:30;66.70;;;31.30;;
48727;SDS011;34527;45.618;5.130;2022-12-08T10:43:35;64.32;;;29.75;;
48727;SDS011;34527;45.618;5.130;2022-12-08T10:46:07;65.40;;;30.15;;
48727;SDS011;34527;45.618;5.130;2022-12-08T10:48:49;70.90;;;33.53;;
48727;SDS011;34527;45.618;5.130;2022-12-08T10:51:24;74.32;;;33.13;;
48727;SDS011;34527;45.618;5.130;2022-12-08T10:53:54;66.30;;;32.38;;
48727;SDS011;34527;45.618;5.130;2022-12-08T10:56:24;65.65;;;31.50;;
48727;SDS011;34527;45.618;5.130;2022-12-08T10:59:09;65.90;;;32.63;;
48727;SDS011;34527;45.618;5.130;2022-12-08T11:01:50;61.28;;;30.75;;
48727;SDS011;34527;45.618;5.130;2022-12-08T11:07:18;61.47;;;30.15;;
48727;SDS011;34527;45.618;5.130;2022-12-08T11:09:57;58.15;;;30.38;;
48727;SDS011;34527;45.618;5.130;2022-12-08T11:12:35;58.38;;;29.33;;
48727;SDS011;34527;45.618;5.130;2022-12-08T11:15:18;56.30;;;30.40;;
48727;SDS011;34527;45.618;5.130;2022-12-08T11:18:06;57.63;;;29.95;;
48727;SDS011;34527;45.618;5.130;2022-12-08T11:21:05;58.38;;;29.27;;
48727;SDS011;34527;45.618;5.130;2022-12-08T11:23:49;58.33;;;29.70;;
48727;SDS011;34527;45.618;5.130;2022-12-08T11:26:31;58.00;;;29.88;;
48727;SDS011;34527;45.618;5.130;2022-12-08T11:29:13;54.47;;;28.83;;
48727;SDS011;34527;45.618;5.130;2022-12-08T11:31:53;61.15;;;30.98;;
48727;SDS011;34527;45.618;5.130;2022-12-08T11:34:50;59.58;;;30.20;;
48727;SDS011;34527;45.618;5.130;2022-12-08T11:37:36;57.97;;;30.52;;
48727;SDS011;34527;45.618;5.130;2022-12-08T11:51:38;64.38;;;33.95;;
48727;SDS011;34527;45.618;5.130;2022-12-08T11:54:32;57.88;;;30.48;;
48727;SDS011;34527;45.618;5.130;2022-12-08T11:57:11;63.15;;;31.88;;
48727;SDS011;34527;45.618;5.130;2022-12-08T11:59:49;60.55;;;31.00;;
48727;SDS011;34527;45.618;5.130;2022-12-08T12:02:29;61.70;;;30.52;;
48727;SDS011;34527;45.618;5.130;2022-12-08T12:05:10;53.75;;;30.35;;
48727;SDS011;34527;45.618;5.130;2022-12-08T12:08:21;56.00;;;31.10;;
48727;SDS011;34527;45.618;5.130;2022-12-08T12:10:59;60.03;;;31.65;;
48727;SDS011;34527;45.618;5.130;2022-12-08T12:19:13;61.95;;;31.38;;
48727;SDS011;34527;45.618;5.130;2022-12-08T12:21:45;57.17;;;31.13;;
48727;SDS011;34527;45.618;5.130;2022-12-08T12:24:40;53.65;;;28.00;;
48727;SDS011;34527;45.618;5.130;2022-12-08T12:27:28;53.10;;;29.15;;
48727;SDS011;34527;45.618;5.130;2022-12-08T12:30:07;51.10;;;28.30;;
48727;SDS011;34527;45.618;5.130;2022-12-08T12:32:47;49.28;;;27.85;;
48727;SDS011;34527;45.618;5.130;2022-12-08T12:35:29;54.60;;;29.33;;
48727;SDS011;34527;45.618;5.130;2022-12-08T12:38:04;54.50;;;30.15;;
48727;SDS011;34527;45.618;5.130;2022-12-08T12:41:08;56.47;;;29.60;;
48727;SDS011;34527;45.618;5.130;2022-12-08T12:43:38;59.08;;;31.17;;
48727;SDS011;34527;45.618;5.130;2022-12-08T12:59:46;54.10;;;28.20;;
48727;SDS011;34527;45.618;5.130;2022-12-08T13:02:16;53.70;;;29.10;;
48727;SDS011;34527;45.618;5.130;2022-12-08T13:04:57;48.40;;;28.10;;
48727;SDS011;34527;45.618;5.130;2022-12-08T13:07:35;46.67;;;28.05;;
48727;SDS011;34527;45.618;5.130;2022-12-08T13:10:38;51.50;;;28.80;;
48727;SDS011;34527;45.618;5.130;2022-12-08T13:15:46;50.22;;;28.27;;
48727;SDS011;34527;45.618;5.130;2022-12-08T13:18:20;45.80;;;27.98;;
48727;SDS011;34527;45.618;5.130;2022-12-08T13:21:19;56.45;;;28.45;;
48727;SDS011;34527;45.618;5.130;2022-12-08T13:23:48;50.13;;;28.17;;
48727;SDS011;34527;45.618;5.130;2022-12-08T13:34:32;49.20;;;28.00;;
48727;SDS011;34527;45.618;5.130;2022-12-08T13:47:39;51.35;;;29.83;;
48727;SDS011;34527;45.618;5.130;2022-12-08T13:50:21;52.95;;;29.95;;
48727;SDS011;34527;45.618;5.130;2022-12-08T13:53:01;55.92;;;30.77;;
48727;SDS011;34527;45.618;5.130;2022-12-08T13:55:37;52.35;;;28.95;;
48727;SDS011;34527;45.618;5.130;2022-12-08T13:58:14;52.63;;;29.40;;
48727;SDS011;34527;45.618;5.130;2022-12-08T14:03:51;50.08;;;29.38;;
48727;SDS011;34527;45.618;5.130;2022-12-08T14:06:28;48.70;;;28.92;;
48727;SDS011;34527;45.618;5.130;2022-12-08T14:09:04;51.53;;;29.45;;
48727;SDS011;34527;45.618;5.130;2022-12-08T14:11:35;51.83;;;29.95;;
48727;SDS011;34527;45.618;5.130;2022-12-08T14:14:06;55.83;;;29.58;;
48727;SDS011;34527;45.618;5.130;2022-12-08T14:16:56;52.47;;;28.83;;
48727;SDS011;34527;45.618;5.130;2022-12-08T14:19:26;52.15;;;28.85;;
48727;SDS011;34527;45.618;5.130;2022-12-08T14:24:32;54.40;;;30.27;;
48727;SDS011;34527;45.618;5.130;2022-12-08T14:27:03;52.20;;;30.08;;
48727;SDS011;34527;45.618;5.130;2022-12-08T14:32:19;53.72;;;29.27;;
48727;SDS011;34527;45.618;5.130;2022-12-08T14:37:31;51.38;;;29.80;;
48727;SDS011;34527;45.618;5.130;2022-12-08T14:40:05;52.70;;;30.55;;
48727;SDS011;34527;45.618;5.130;2022-12-08T14:42:44;53.10;;;30.52;;
48727;SDS011;34527;45.618;5.130;2022-12-08T14:45:13;53.97;;;30.73;;
48727;SDS011;34527;45.618;5.130;2022-12-08T14:47:40;51.88;;;28.00;;
48727;SDS011;34527;45.618;5.130;2022-12-08T14:53:02;55.85;;;31.33;;
48727;SDS011;34527;45.618;5.130;2022-12-08T14:55:35;54.13;;;31.40;;
48727;SDS011;34527;45.618;5.130;2022-12-08T14:58:02;53.17;;;30.73;;
48727;SDS011;34527;45.618;5.130;2022-12-08T15:00:28;54.97;;;31.42;;
48727;SDS011;34527;45.618;5.130;2022-12-08T15:02:55;53.42;;;31.35;;
48727;SDS011;34527;45.618;5.130;2022-12-08T15:05:21;56.15;;;32.13;;
48727;SDS011;34527;45.618;5.130;2022-12-08T15:07:55;53.95;;;31.60;;
48727;SDS011;34527;45.618;5.130;2022-12-08T15:10:27;54.92;;;30.40;;
48727;SDS011;34527;45.618;5.130;2022-12-08T15:13:06;54.65;;;31.35;;
48727;SDS011;34527;45.618;5.130;2022-12-08T15:15:50;56.07;;;31.63;;
48727;SDS011;34527;45.618;5.130;2022-12-08T15:18:21;57.97;;;32.10;;
48727;SDS011;34527;45.618;5.130;2022-12-08T15:21:01;52.13;;;30.20;;
48727;SDS011;34527;45.618;5.130;2022-12-08T15:23:31;55.95;;;31.15;;
48727;SDS011;34527;45.618;5.130;2022-12-08T15:26:19;53.22;;;31.88;;
48727;SDS011;34527;45.618;5.130;2022-12-08T15:28:49;51.70;;;30.33;;
48727;SDS011;34527;45.618;5.130;2022-12-08T15:31:16;52.78;;;30.25;;
48727;SDS011;34527;45.618;5.130;2022-12-08T15:33:43;57.85;;;33.40;;
48727;SDS011;34527;45.618;5.130;2022-12-08T15:36:09;60.42;;;32.88;;
48727;SDS011;34527;45.618;5.130;2022-12-08T15:38:36;60.45;;;33.83;;
48727;SDS011;34527;45.618;5.130;2022-12-08T15:41:03;60.15;;;34.28;;
48727;SDS011;34527;45.618;5.130;2022-12-08T15:43:30;60.92;;;33.60;;
48727;SDS011;34527;45.618;5.130;2022-12-08T15:45:56;59.78;;;32.97;;
48727;SDS011;34527;45.618;5.130;2022-12-08T15:48:25;57.70;;;32.67;;
48727;SDS011;34527;45.618;5.130;2022-12-08T15:50:53;56.95;;;31.83;;
48727;SDS011;34527;45.618;5.130;2022-12-08T15:53:20;57.67;;;31.95;;
48727;SDS011;34527;45.618;5.130;2022-12-08T15:55:46;57.28;;;32.17;;
48727;SDS011;34527;45.618;5.130;2022-12-08T15:58:22;56.78;;;32.20;;
48727;SDS011;34527;45.618;5.130;2022-12-08T16:00:49;55.72;;;31.63;;
48727;SDS011;34527;45.618;5.130;2022-12-08T16:05:52;58.40;;;33.47;;
48727;SDS011;34527;45.618;5.130;2022-12-08T16:08:19;58.80;;;33.05;;
48727;SDS011;34527;45.618;5.130;2022-12-08T16:10:46;58.28;;;33.67;;
48727;SDS011;34527;45.618;5.130;2022-12-08T16:13:13;58.35;;;33.30;;
48727;SDS011;34527;45.618;5.130;2022-12-08T16:16:02;58.08;;;33.22;;
48727;SDS011;34527;45.618;5.130;2022-12-08T16:18:33;60.67;;;32.95;;
48727;SDS011;34527;45.618;5.130;2022-12-08T16:21:02;61.70;;;34.08;;
48727;SDS011;34527;45.618;5.130;2022-12-08T16:23:28;59.58;;;33.58;;
48727;SDS011;34527;45.618;5.130;2022-12-08T16:25:54;56.58;;;33.58;;
48727;SDS011;34527;45.618;5.130;2022-12-08T16:28:21;59.20;;;33.72;;
48727;SDS011;34527;45.618;5.130;2022-12-08T16:30:47;55.85;;;32.47;;
48727;SDS011;34527;45.618;5.130;2022-12-08T16:33:12;64.00;;;34.78;;
48727;SDS011;34527;45.618;5.130;2022-12-08T16:35:39;64.78;;;32.97;;
48727;SDS011;34527;45.618;5.130;2022-12-08T16:38:06;59.47;;;31.80;;
48727;SDS011;34527;45.618;5.130;2022-12-08T16:40:32;63.28;;;33.65;;
48727;SDS011;34527;45.618;5.130;2022-12-08T16:43:18;62.03;;;33.67;;
48727;SDS011;34527;45.618;5.130;2022-12-08T16:45:44;64.13;;;34.53;;